createdAt,value
2018-11-11T00:00:14.909Z,94905.4
2018-11-11T00:01:17.350Z,94908.1
2018-11-11T00:02:19.509Z,94912.4
2018-11-11T00:03:21.939Z,94916.1
2018-11-11T00:04:24.110Z,94919.2
2018-11-11T00:05:26.269Z,94916.3
2018-11-11T00:06:28.414Z,94919.1
2018-11-11T00:07:30.317Z,94915.6
2018-11-11T00:08:32.752Z,94919
2018-11-11T00:09:34.929Z,94917.8
2018-11-11T00:10:37.079Z,94917.3
2018-11-11T00:11:38.689Z,94920.4
2018-11-11T00:12:40.858Z,94926.8
2018-11-11T00:13:43.281Z,94922.2
2018-11-11T00:14:45.466Z,94925.3
2018-11-11T00:15:47.608Z,94923.6
2018-11-11T00:16:50.045Z,94922.8
2018-11-11T00:17:52.202Z,94918.4
2018-11-11T00:18:54.363Z,94914.8
2018-11-11T00:19:56.512Z,94915.5
2018-11-11T00:20:58.666Z,94913.1
2018-11-11T00:22:01.102Z,94919.1
2018-11-11T00:23:03.260Z,94918.6
2018-11-11T00:24:05.702Z,94918.4
2018-11-11T00:25:07.845Z,94917.1
2018-11-11T00:26:10.278Z,94920.7
2018-11-11T00:27:12.440Z,94920.3
2018-11-11T00:28:14.853Z,94923.4
2018-11-11T00:29:17.029Z,94921.4
2018-11-11T00:30:19.200Z,94921.7
2018-11-11T00:31:21.349Z,94919.1
2018-11-11T00:32:23.800Z,94922
2018-11-11T00:33:25.655Z,94919.5
2018-11-11T00:34:28.089Z,94922.2
2018-11-11T00:35:30.504Z,94920.2
2018-11-11T00:36:32.649Z,94925.6
2018-11-11T00:37:35.073Z,94927.7
2018-11-11T00:38:36.700Z,94931.7
2018-11-11T00:39:39.658Z,94930.7
2018-11-11T00:40:42.299Z,94936.8
2018-11-11T00:41:44.474Z,94941.5
2018-11-11T00:42:46.338Z,94942
2018-11-11T00:43:48.515Z,94942.6
2018-11-11T00:44:50.669Z,94947.3
2018-11-11T00:45:52.556Z,94949.9
2018-11-11T00:46:54.449Z,94953.6
2018-11-11T00:47:56.874Z,94953.2
2018-11-11T00:48:59.044Z,94951.9
2018-11-11T00:50:01.497Z,94954.2
2018-11-11T00:51:03.926Z,94956.9
2018-11-11T00:52:05.818Z,94959.4
2018-11-11T00:53:08.245Z,94957.1
2018-11-11T00:54:10.682Z,94956.3
2018-11-11T00:55:12.582Z,94953.3
2018-11-11T00:56:15.015Z,94957.5
2018-11-11T00:57:17.439Z,94956.2
2018-11-11T00:58:19.605Z,94959.1
2018-11-11T00:59:21.749Z,94956.7
2018-11-11T01:00:23.652Z,94957.1
2018-11-11T01:01:26.078Z,94959.1
2018-11-11T01:02:27.945Z,94957.6
2018-11-11T01:03:30.079Z,94959.2
2018-11-11T01:04:32.506Z,94958.5
2018-11-11T01:05:34.665Z,94961.5
2018-11-11T01:06:37.106Z,94959.2
2018-11-11T01:07:39.539Z,94960.6
2018-11-11T01:08:41.712Z,94968.7
2018-11-11T01:09:44.140Z,94970.1
2018-11-11T01:10:46.289Z,94971.2
2018-11-11T01:11:48.435Z,94969.3
2018-11-11T01:12:50.105Z,94970.1
2018-11-11T01:13:52.527Z,94970.8
2018-11-11T01:14:54.115Z,94971
2018-11-11T01:15:56.279Z,94975.5
2018-11-11T01:16:58.165Z,94979.5
2018-11-11T01:18:00.306Z,94980.7
2018-11-11T01:19:02.727Z,94978.6
2018-11-11T01:20:04.616Z,94978.2
2018-11-11T01:21:06.496Z,94975.5
2018-11-11T01:22:08.650Z,94970.9
2018-11-11T01:23:11.079Z,94975.5
2018-11-11T01:24:13.231Z,94971.6
2018-11-11T01:25:15.395Z,94972.7
2018-11-11T01:26:17.526Z,94972.2
2018-11-11T01:27:19.398Z,94974.8
2018-11-11T01:28:21.282Z,94978.6
2018-11-11T01:29:22.889Z,94981.7
2018-11-11T01:30:24.769Z,94984.3
2018-11-11T01:31:26.904Z,94990.8
2018-11-11T01:32:28.514Z,94989.8
2018-11-11T01:33:30.675Z,94993.2
2018-11-11T01:34:33.099Z,94995.6
2018-11-11T01:35:35.527Z,94995.1
2018-11-11T01:36:37.955Z,94993.9
2018-11-11T01:37:40.393Z,94993.4
2018-11-11T01:38:42.250Z,94993.8
2018-11-11T01:39:44.677Z,94994.7
2018-11-11T01:40:47.126Z,94992
2018-11-11T01:41:49.277Z,94995.2
2018-11-11T01:42:51.427Z,94993.6
2018-11-11T01:43:53.605Z,94997.8
2018-11-11T01:44:55.758Z,94999.1
2018-11-11T01:45:57.619Z,94994.6
2018-11-11T01:46:59.757Z,94989.6
2018-11-11T01:48:02.189Z,94986.9
2018-11-11T01:49:04.350Z,94985.5
2018-11-11T01:50:06.786Z,94988.3
2018-11-11T01:51:08.936Z,94997.3
2018-11-11T01:52:11.106Z,95002.8
2018-11-11T01:53:13.270Z,95007
2018-11-11T01:54:15.424Z,95009.8
2018-11-11T01:55:17.579Z,95007.9
2018-11-11T01:56:20.010Z,95009.8
2018-11-11T01:57:22.158Z,95004.3
2018-11-11T01:58:24.312Z,95002.6
2018-11-11T01:59:26.459Z,95009.1
2018-11-11T02:00:28.630Z,95004.6
2018-11-11T02:01:31.049Z,95016.6
2018-11-11T02:02:32.928Z,95025.6
2018-11-11T02:03:35.103Z,95034
2018-11-11T02:04:37.251Z,95041.7
2018-11-11T02:05:39.682Z,95041.8
2018-11-11T02:06:41.319Z,95040.9
2018-11-11T02:07:43.474Z,95042.9
2018-11-11T02:08:45.364Z,95043.1
2018-11-11T02:09:47.580Z,95048.5
2018-11-11T02:10:49.863Z,95049.8
2018-11-11T02:11:51.179Z,95052.4
2018-11-11T02:12:53.336Z,95056.6
2018-11-11T02:13:55.768Z,95058.3
2018-11-11T02:14:58.197Z,95054.1
2018-11-11T02:16:00.350Z,95055.9
2018-11-11T02:17:02.225Z,95057
2018-11-11T02:18:04.377Z,95057.5
2018-11-11T02:19:06.538Z,95060.6
2018-11-11T02:20:08.698Z,95054.9
2018-11-11T02:21:11.614Z,95053.6
2018-11-11T02:22:13.760Z,95059.3
2018-11-11T02:23:16.196Z,95059.5
2018-11-11T02:24:18.326Z,95063.6
2018-11-11T02:25:20.460Z,95060
2018-11-11T02:26:22.623Z,95060
2018-11-11T02:27:24.772Z,95065.8
2018-11-11T02:28:26.365Z,95070.9
2018-11-11T02:29:28.505Z,95069.8
2018-11-11T02:30:30.942Z,95069.4
2018-11-11T02:31:32.815Z,95066.8
2018-11-11T02:32:35.245Z,95068.8
2018-11-11T02:33:37.678Z,95070.9
2018-11-11T02:34:39.018Z,95069.4
2018-11-11T02:35:40.880Z,95069.8
2018-11-11T02:36:42.767Z,95068.4
2018-11-11T02:37:45.569Z,95070.2
2018-11-11T02:38:48.254Z,95071.1
2018-11-11T02:39:50.110Z,95075
2018-11-11T02:40:51.728Z,95075.6
2018-11-11T02:41:53.884Z,95076.5
2018-11-11T02:42:56.308Z,95073.7
2018-11-11T02:43:57.932Z,95078.6
2018-11-11T02:45:00.358Z,95077.3
2018-11-11T02:46:02.784Z,95080.5
2018-11-11T02:47:04.930Z,95078.3
2018-11-11T02:48:07.099Z,95079.7
2018-11-11T02:49:09.277Z,95081.3
2018-11-11T02:50:11.431Z,95082.4
2018-11-11T02:51:12.756Z,95084.1
2018-11-11T02:52:14.919Z,95081.4
2018-11-11T02:53:17.075Z,95076.2
2018-11-11T02:54:19.220Z,95078.1
2018-11-11T02:55:21.108Z,95084
2018-11-11T02:56:23.543Z,95081.2
2018-11-11T02:57:25.423Z,95079.7
2018-11-11T02:58:27.013Z,95084.4
2018-11-11T02:59:28.919Z,95080.5
2018-11-11T03:00:30.512Z,95078.9
2018-11-11T03:01:32.669Z,95075.2
2018-11-11T03:02:35.096Z,95075.3
2018-11-11T03:03:36.687Z,95077.5
2018-11-11T03:04:39.121Z,95074.6
2018-11-11T03:05:41.008Z,95077.7
2018-11-11T03:06:42.870Z,95078.7
2018-11-11T03:07:45.026Z,95083.4
2018-11-11T03:08:47.194Z,95082.4
2018-11-11T03:09:49.073Z,95081.3
2018-11-11T03:10:51.241Z,95085.5
2018-11-11T03:11:53.095Z,95083.1
2018-11-11T03:12:55.521Z,95085.6
2018-11-11T03:13:57.938Z,95090.4
2018-11-11T03:14:59.820Z,95089.2
2018-11-11T03:16:01.974Z,95092
2018-11-11T03:17:04.402Z,95098.8
2018-11-11T03:18:06.564Z,95101.8
2018-11-11T03:19:08.708Z,95099
2018-11-11T03:20:10.608Z,95100
2018-11-11T03:21:12.469Z,95100.3
2018-11-11T03:22:14.369Z,95102.1
2018-11-11T03:23:16.529Z,95101.1
2018-11-11T03:24:18.418Z,95098.2
2018-11-11T03:25:20.585Z,95100.5
2018-11-11T03:26:22.728Z,95101.1
2018-11-11T03:27:25.179Z,95105.2
2018-11-11T03:28:27.319Z,95104.1
2018-11-11T03:29:29.751Z,95105.9
2018-11-11T03:30:31.907Z,95104.1
2018-11-11T03:31:33.494Z,95105.8
2018-11-11T03:32:35.630Z,95107.8
2018-11-11T03:33:37.786Z,95103.7
2018-11-11T03:34:39.949Z,95103.7
2018-11-11T03:35:42.107Z,95102.3
2018-11-11T03:36:44.269Z,95101.6
2018-11-11T03:37:46.425Z,95099.5
2018-11-11T03:38:48.847Z,95104.5
2018-11-11T03:39:50.729Z,95102.8
2018-11-11T03:40:53.158Z,95102.7
2018-11-11T03:41:55.321Z,95106.6
2018-11-11T03:42:57.528Z,95115.5
2018-11-11T03:43:59.676Z,95115.5
2018-11-11T03:45:01.834Z,95118.1
2018-11-11T03:46:03.986Z,95120.9
2018-11-11T03:47:05.857Z,95121.2
2018-11-11T03:48:08.279Z,95127.6
2018-11-11T03:49:10.438Z,95128.9
2018-11-11T03:50:12.866Z,95121.4
2018-11-11T03:51:14.749Z,95117
2018-11-11T03:52:16.904Z,95115
2018-11-11T03:53:19.061Z,95112.3
2018-11-11T03:54:21.496Z,95115
2018-11-11T03:55:23.928Z,95114.3
2018-11-11T03:56:26.359Z,95115.8
2018-11-11T03:57:27.689Z,95109.5
2018-11-11T03:58:29.958Z,95111.3
2018-11-11T03:59:32.161Z,95109.4
2018-11-11T04:00:34.323Z,95107.1
2018-11-11T04:01:36.488Z,95106.3
2018-11-11T04:02:38.373Z,95110
2018-11-11T04:03:40.559Z,95115.9
2018-11-11T04:04:42.706Z,95117.2
2018-11-11T04:05:45.124Z,95117.5
2018-11-11T04:06:47.024Z,95118.8
2018-11-11T04:07:49.186Z,95118.5
2018-11-11T04:08:51.340Z,95123
2018-11-11T04:09:52.687Z,95135.3
2018-11-11T04:10:54.842Z,95139.6
2018-11-11T04:11:56.719Z,95145
2018-11-11T04:12:58.051Z,95141.4
2018-11-11T04:14:00.219Z,95143
2018-11-11T04:15:02.377Z,95146.1
2018-11-11T04:16:04.854Z,95156.3
2018-11-11T04:17:06.727Z,95153.9
2018-11-11T04:18:09.144Z,95158.1
2018-11-11T04:19:11.577Z,95153.9
2018-11-11T04:20:13.991Z,95156.5
2018-11-11T04:21:16.152Z,95154.5
2018-11-11T04:22:18.579Z,95152
2018-11-11T04:23:21.009Z,95152.3
2018-11-11T04:24:23.442Z,95154.1
2018-11-11T04:25:25.042Z,95153.8
2018-11-11T04:26:27.468Z,95156.9
2018-11-11T04:27:29.362Z,95158.3
2018-11-11T04:28:31.532Z,95157.6
2018-11-11T04:29:33.708Z,95158.3
2018-11-11T04:30:36.147Z,95157.9
2018-11-11T04:31:38.567Z,95155.5
2018-11-11T04:32:40.459Z,95150.1
2018-11-11T04:33:42.357Z,95155.2
2018-11-11T04:34:44.524Z,95155.2
2018-11-11T04:35:46.935Z,95154.8
2018-11-11T04:36:49.375Z,95150.3
2018-11-11T04:37:51.807Z,95143.7
2018-11-11T04:38:54.049Z,95142.4
2018-11-11T04:39:56.158Z,95139.9
2018-11-11T04:40:57.751Z,95136.3
2018-11-11T04:42:00.190Z,95139.3
2018-11-11T04:43:02.087Z,95136
2018-11-11T04:44:04.506Z,95130.5
2018-11-11T04:45:06.665Z,95130.5
2018-11-11T04:46:09.099Z,95127.1
2018-11-11T04:47:11.237Z,95123
2018-11-11T04:48:13.395Z,95122.8
2018-11-11T04:49:15.620Z,95126.6
2018-11-11T04:50:17.769Z,95130
2018-11-11T04:51:20.195Z,95123.1
2018-11-11T04:52:22.074Z,95124.4
2018-11-11T04:53:24.228Z,95125.9
2018-11-11T04:54:26.364Z,95121.5
2018-11-11T04:55:27.971Z,95118.4
2018-11-11T04:56:29.862Z,95115.5
2018-11-11T04:57:31.739Z,95104.9
2018-11-11T04:58:33.329Z,95099.6
2018-11-11T04:59:34.933Z,95097.6
2018-11-11T05:00:37.373Z,95092.2
2018-11-11T05:01:40.646Z,95089.9
2018-11-11T05:02:43.028Z,95089.8
2018-11-11T05:03:45.179Z,95088
2018-11-11T05:04:47.721Z,95088.4
2018-11-11T05:05:50.377Z,95085.1
2018-11-11T05:06:52.788Z,95080
2018-11-11T05:07:55.217Z,95070.6
2018-11-11T05:08:57.639Z,95062.4
2018-11-11T05:09:59.799Z,95049.8
2018-11-11T05:11:01.673Z,95042.8
2018-11-11T05:12:03.563Z,95035.6
2018-11-11T05:13:05.994Z,95025.6
2018-11-11T05:14:08.427Z,95020.8
2018-11-11T05:15:10.859Z,95021.4
2018-11-11T05:16:12.732Z,95030.2
2018-11-11T05:17:15.155Z,95027.4
2018-11-11T05:18:17.315Z,95024.8
2018-11-11T05:19:19.459Z,95020.5
2018-11-11T05:20:21.338Z,95020.4
2018-11-11T05:21:22.966Z,95013
2018-11-11T05:22:25.401Z,95006.3
2018-11-11T05:23:27.566Z,95013.5
2018-11-11T05:24:29.732Z,95018.3
2018-11-11T05:25:31.891Z,95025
2018-11-11T05:26:34.023Z,95030.4
2018-11-11T05:27:35.929Z,95034.3
2018-11-11T05:28:38.082Z,95045.7
2018-11-11T05:29:39.700Z,95042.5
2018-11-11T05:30:41.833Z,95053.4
2018-11-11T05:31:44.297Z,95065
2018-11-11T05:32:46.732Z,95072.1
2018-11-11T05:33:48.881Z,95083
2018-11-11T05:34:51.039Z,95089.1
2018-11-11T05:35:53.477Z,95096.1
2018-11-11T05:36:55.635Z,95097.1
2018-11-11T05:37:57.257Z,95104.8
2018-11-11T05:38:59.679Z,95109.8
2018-11-11T05:40:01.840Z,95116.4
2018-11-11T05:41:04.011Z,95120.5
2018-11-11T05:42:05.887Z,95120.9
2018-11-11T05:43:07.490Z,95120.5
2018-11-11T05:44:09.089Z,95121.7
2018-11-11T05:45:11.529Z,95117.4
2018-11-11T05:46:13.681Z,95119.8
2018-11-11T05:47:15.835Z,95119.5
2018-11-11T05:48:18.026Z,95118.6
2018-11-11T05:49:20.455Z,95120.8
2018-11-11T05:50:22.317Z,95122.5
2018-11-11T05:51:24.567Z,95125.9
2018-11-11T05:52:26.459Z,95131.3
2018-11-11T05:53:28.615Z,95133.9
2018-11-11T05:54:30.793Z,95134.4
2018-11-11T05:55:32.967Z,95135.1
2018-11-11T05:56:34.865Z,95138.7
2018-11-11T05:57:37.013Z,95142.1
2018-11-11T05:58:39.164Z,95141.5
2018-11-11T05:59:41.599Z,95136.3
2018-11-11T06:00:44.026Z,95138.2
2018-11-11T06:01:45.904Z,95135.3
2018-11-11T06:02:47.802Z,95133.8
2018-11-11T06:03:49.942Z,95139.8
2018-11-11T06:04:52.099Z,95141.9
2018-11-11T06:05:53.978Z,95140.5
2018-11-11T06:06:55.583Z,95145.4
2018-11-11T06:07:58.010Z,95147.2
2018-11-11T06:08:59.889Z,95144.5
2018-11-11T06:10:02.066Z,95150.5
2018-11-11T06:11:03.978Z,95148
2018-11-11T06:12:05.837Z,95139
2018-11-11T06:13:08.277Z,95143.1
2018-11-11T06:14:10.439Z,95144.6
2018-11-11T06:15:12.605Z,95150.8
2018-11-11T06:16:14.765Z,95151.8
2018-11-11T06:17:16.929Z,95153.2
2018-11-11T06:18:18.818Z,95155.3
2018-11-11T06:19:20.987Z,95155.1
2018-11-11T06:20:23.139Z,95157.2
2018-11-11T06:21:25.564Z,95158.1
2018-11-11T06:22:27.977Z,95157.6
2018-11-11T06:23:30.412Z,95154.8
2018-11-11T06:24:32.559Z,95151.5
2018-11-11T06:25:34.986Z,95148.7
2018-11-11T06:26:37.421Z,95145.1
2018-11-11T06:27:40.464Z,95142.1
2018-11-11T06:28:42.329Z,95138.5
2018-11-11T06:29:44.754Z,95140
2018-11-11T06:30:46.620Z,95137.1
2018-11-11T06:31:48.486Z,95132.7
2018-11-11T06:32:50.921Z,95132
2018-11-11T06:33:52.880Z,95131.2
2018-11-11T06:34:55.686Z,95130.5
2018-11-11T06:35:57.840Z,95131.6
2018-11-11T06:36:59.990Z,95130.8
2018-11-11T06:38:01.863Z,95133.2
2018-11-11T06:39:03.725Z,95134.1
2018-11-11T06:40:05.067Z,95142.6
2018-11-11T06:41:07.496Z,95153.7
2018-11-11T06:42:09.655Z,95161.5
2018-11-11T06:43:11.810Z,95168.2
2018-11-11T06:44:13.967Z,95176.5
2018-11-11T06:45:16.137Z,95174.8
2018-11-11T06:46:18.298Z,95179.3
2018-11-11T06:47:20.449Z,95175.1
2018-11-11T06:48:22.613Z,95181
2018-11-11T06:49:24.783Z,95183.8
2018-11-11T06:50:26.631Z,95187.8
2018-11-11T06:51:28.795Z,95194.5
2018-11-11T06:52:30.954Z,95192.8
2018-11-11T06:53:33.085Z,95191
2018-11-11T06:54:34.991Z,95186.4
2018-11-11T06:55:37.129Z,95177.2
2018-11-11T06:56:39.284Z,95169
2018-11-11T06:57:41.187Z,95156.6
2018-11-11T06:58:43.331Z,95148.6
2018-11-11T06:59:45.762Z,95148.2
2018-11-11T07:00:47.627Z,95145.4
2018-11-11T07:01:49.771Z,95148.5
2018-11-11T07:02:51.898Z,95143
2018-11-11T07:03:54.040Z,95141
2018-11-11T07:04:56.204Z,95134.6
2018-11-11T07:05:57.522Z,95126.2
2018-11-11T07:06:59.949Z,95122.8
2018-11-11T07:08:01.822Z,95118.8
2018-11-11T07:09:03.964Z,95122.1
2018-11-11T07:10:06.110Z,95128.4
2018-11-11T07:11:08.260Z,95135.2
2018-11-11T07:12:10.426Z,95146.4
2018-11-11T07:13:12.565Z,95158.1
2018-11-11T07:14:15.638Z,95156.3
2018-11-11T07:15:17.499Z,95151.9
2018-11-11T07:16:19.375Z,95149.1
2018-11-11T07:17:21.302Z,95144.4
2018-11-11T07:18:23.728Z,95144
2018-11-11T07:19:26.148Z,95139.2
2018-11-11T07:20:28.576Z,95136.9
2018-11-11T07:21:30.466Z,95141
2018-11-11T07:22:32.626Z,95149.3
2018-11-11T07:23:35.255Z,95154.3
2018-11-11T07:24:37.476Z,95163.4
2018-11-11T07:25:39.652Z,95159.7
2018-11-11T07:26:42.079Z,95154.4
2018-11-11T07:27:44.290Z,95149.4
2018-11-11T07:28:46.726Z,95154.2
2018-11-11T07:29:48.881Z,95146
2018-11-11T07:30:51.044Z,95151.5
2018-11-11T07:31:53.469Z,95154.2
2018-11-11T07:32:55.637Z,95166.9
2018-11-11T07:33:58.069Z,95178.6
2018-11-11T07:34:59.938Z,95185.8
2018-11-11T07:36:02.938Z,95193.2
2018-11-11T07:37:05.580Z,95191.7
2018-11-11T07:38:07.454Z,95191.3
2018-11-11T07:39:09.877Z,95190.3
2018-11-11T07:40:11.498Z,95190.9
2018-11-11T07:41:13.650Z,95189.5
2018-11-11T07:42:15.940Z,95192
2018-11-11T07:43:18.428Z,95199.7
2018-11-11T07:44:20.861Z,95196.2
2018-11-11T07:45:23.021Z,95197.7
2018-11-11T07:46:25.449Z,95192.5
2018-11-11T07:47:27.884Z,95194
2018-11-11T07:48:30.327Z,95195.9
2018-11-11T07:49:32.752Z,95194.9
2018-11-11T07:50:34.628Z,95196.1
2018-11-11T07:51:36.789Z,95204.9
2018-11-11T07:52:39.222Z,95206.3
2018-11-11T07:53:41.649Z,95207.4
2018-11-11T07:54:44.212Z,95216.1
2018-11-11T07:55:46.498Z,95217.5
2018-11-11T07:56:48.643Z,95220.4
2018-11-11T07:57:50.798Z,95215.6
2018-11-11T07:58:52.128Z,95213
2018-11-11T07:59:54.277Z,95207
2018-11-11T08:00:55.898Z,95203
2018-11-11T08:01:58.406Z,95204.5
2018-11-11T08:03:00.875Z,95208.8
2018-11-11T08:04:02.786Z,95216.7
2018-11-11T08:05:04.935Z,95225.5
2018-11-11T08:06:07.091Z,95227.9
2018-11-11T08:07:09.241Z,95228
2018-11-11T08:08:11.673Z,95224.1
2018-11-11T08:09:13.823Z,95216.8
2018-11-11T08:10:15.428Z,95218.9
2018-11-11T08:11:17.698Z,95208.7
2018-11-11T08:12:19.929Z,95212.6
2018-11-11T08:13:22.076Z,95215.4
2018-11-11T08:14:24.226Z,95221.6
2018-11-11T08:15:26.120Z,95227.5
2018-11-11T08:16:28.545Z,95235.3
2018-11-11T08:17:30.182Z,95242.9
2018-11-11T08:18:32.068Z,95251.4
2018-11-11T08:19:34.228Z,95252.8
2018-11-11T08:20:36.387Z,95256.9
2018-11-11T08:21:38.522Z,95252.4
2018-11-11T08:22:40.678Z,95252.4
2018-11-11T08:23:42.580Z,95256.1
2018-11-11T08:24:44.762Z,95261.2
2018-11-11T08:25:47.193Z,95269.2
2018-11-11T08:26:49.359Z,95273
2018-11-11T08:27:51.800Z,95283.6
2018-11-11T08:28:54.225Z,95286.3
2018-11-11T08:29:56.099Z,95284.5
2018-11-11T08:30:58.292Z,95279.6
2018-11-11T08:32:00.268Z,95285.6
2018-11-11T08:33:02.492Z,95291.4
2018-11-11T08:34:04.363Z,95295.6
2018-11-11T08:35:06.275Z,95300
2018-11-11T08:36:08.160Z,95306.2
2018-11-11T08:37:10.593Z,95307.2
2018-11-11T08:38:12.736Z,95310.5
2018-11-11T08:39:15.154Z,95307.3
2018-11-11T08:40:17.820Z,95308.6
2018-11-11T08:41:20.285Z,95305.5
2018-11-11T08:42:22.460Z,95314
2018-11-11T08:43:24.618Z,95314
2018-11-11T08:44:26.766Z,95318.6
2018-11-11T08:45:28.379Z,95323.6
2018-11-11T08:46:30.803Z,95323.5
2018-11-11T08:47:32.981Z,95315
2018-11-11T08:48:34.843Z,95306.8
2018-11-11T08:49:37.279Z,95307.8
2018-11-11T08:50:39.432Z,95307.3
2018-11-11T08:51:41.869Z,95313.3
2018-11-11T08:52:44.307Z,95317.7
2018-11-11T08:53:45.906Z,95313.4
2018-11-11T08:54:48.062Z,95311.5
2018-11-11T08:55:50.226Z,95307
2018-11-11T08:56:52.386Z,95301.2
2018-11-11T08:57:54.824Z,95291.5
2018-11-11T08:58:56.972Z,95291.4
2018-11-11T08:59:59.418Z,95292
2018-11-11T09:01:01.597Z,95294.7
2018-11-11T09:02:03.743Z,95301.4
2018-11-11T09:03:05.365Z,95305.3
2018-11-11T09:04:07.238Z,95304.9
2018-11-11T09:05:09.103Z,95300.1
2018-11-11T09:06:10.689Z,95289.5
2018-11-11T09:07:12.575Z,95282.2
2018-11-11T09:08:14.735Z,95278.8
2018-11-11T09:09:17.160Z,95281.8
2018-11-11T09:10:19.600Z,95280.4
2018-11-11T09:11:22.000Z,95279.2
2018-11-11T09:12:24.607Z,95279.8
2018-11-11T09:13:26.495Z,95274.2
2018-11-11T09:14:28.705Z,95273
2018-11-11T09:15:31.159Z,95272.7
2018-11-11T09:16:33.584Z,95275.7
2018-11-11T09:17:35.713Z,95277
2018-11-11T09:18:37.883Z,95279.5
2018-11-11T09:19:40.314Z,95282.9
2018-11-11T09:20:42.481Z,95284.5
2018-11-11T09:21:44.098Z,95287.5
2018-11-11T09:22:46.543Z,95297.5
2018-11-11T09:23:49.194Z,95293.9
2018-11-11T09:24:51.780Z,95296
2018-11-11T09:25:53.961Z,95296
2018-11-11T09:26:55.548Z,95306.6
2018-11-11T09:27:57.689Z,95310.1
2018-11-11T09:28:59.704Z,95316.1
2018-11-11T09:30:01.817Z,95323.6
2018-11-11T09:31:03.701Z,95328.9
2018-11-11T09:32:06.137Z,95324
2018-11-11T09:33:08.313Z,95323.8
2018-11-11T09:34:10.742Z,95320.8
2018-11-11T09:35:13.247Z,95315.9
2018-11-11T09:36:15.782Z,95319.6
2018-11-11T09:37:17.678Z,95326.6
2018-11-11T09:38:19.858Z,95329.9
2018-11-11T09:39:22.289Z,95342.8
2018-11-11T09:40:24.466Z,95345.6
2018-11-11T09:41:26.348Z,95356.1
2018-11-11T09:42:28.680Z,95358.3
2018-11-11T09:43:30.922Z,95360.1
2018-11-11T09:44:33.057Z,95362.1
2018-11-11T09:45:35.211Z,95364.6
2018-11-11T09:46:37.378Z,95367.6
2018-11-11T09:47:39.320Z,95363.5
2018-11-11T09:48:41.556Z,95366.7
2018-11-11T09:49:43.714Z,95378.1
2018-11-11T09:50:45.852Z,95374.6
2018-11-11T09:51:48.028Z,95375.8
2018-11-11T09:52:50.841Z,95379.1
2018-11-11T09:53:53.564Z,95378.7
2018-11-11T09:54:55.749Z,95378.5
2018-11-11T09:55:58.213Z,95375.5
2018-11-11T09:57:00.099Z,95372
2018-11-11T09:58:02.528Z,95367
2018-11-11T09:59:04.699Z,95360
2018-11-11T10:00:07.136Z,95363.9
2018-11-11T10:01:09.301Z,95371.4
2018-11-11T10:02:11.729Z,95375.5
2018-11-11T10:03:13.855Z,95380.4
2018-11-11T10:04:16.031Z,95385.6
2018-11-11T10:05:17.918Z,95385.4
2018-11-11T10:06:20.115Z,95384
2018-11-11T10:07:22.327Z,95385.2
2018-11-11T10:08:24.759Z,95388.9
2018-11-11T10:09:27.189Z,95388.8
2018-11-11T10:10:29.325Z,95390.7
2018-11-11T10:11:31.747Z,95397.9
2018-11-11T10:12:34.818Z,95411.7
2018-11-11T10:13:36.701Z,95423.2
2018-11-11T10:14:38.860Z,95422.1
2018-11-11T10:15:40.735Z,95431.6
2018-11-11T10:16:42.875Z,95431.2
2018-11-11T10:17:45.063Z,95431.7
2018-11-11T10:18:46.648Z,95418.4
2018-11-11T10:19:49.077Z,95418.3
2018-11-11T10:20:51.490Z,95418.8
2018-11-11T10:21:53.818Z,95420.1
2018-11-11T10:22:55.973Z,95419.1
2018-11-11T10:23:57.853Z,95423.4
2018-11-11T10:25:00.313Z,95420.6
2018-11-11T10:26:02.743Z,95423.5
2018-11-11T10:27:05.270Z,95430.7
2018-11-11T10:28:07.430Z,95433
2018-11-11T10:29:09.780Z,95431.9
2018-11-11T10:30:11.904Z,95431.4
2018-11-11T10:31:13.509Z,95423.2
2018-11-11T10:32:15.376Z,95419.4
2018-11-11T10:33:17.631Z,95414.6
2018-11-11T10:34:20.107Z,95418.8
2018-11-11T10:35:21.719Z,95418.2
2018-11-11T10:36:24.160Z,95420.6
2018-11-11T10:37:26.982Z,95420.1
2018-11-11T10:38:29.341Z,95419.9
2018-11-11T10:39:31.505Z,95418.9
2018-11-11T10:40:33.659Z,95416.8
2018-11-11T10:41:35.829Z,95418.3
2018-11-11T10:42:37.964Z,95409.6
2018-11-11T10:43:39.553Z,95409.7
2018-11-11T10:44:41.706Z,95415.5
2018-11-11T10:45:44.152Z,95410.4
2018-11-11T10:46:46.589Z,95409.7
2018-11-11T10:47:48.468Z,95409
2018-11-11T10:48:50.354Z,95404.9
2018-11-11T10:49:52.521Z,95410.5
2018-11-11T10:50:54.959Z,95413.6
2018-11-11T10:51:57.147Z,95404.4
2018-11-11T10:52:59.030Z,95404
2018-11-11T10:54:01.194Z,95406.5
2018-11-11T10:55:03.335Z,95404.9
2018-11-11T10:56:05.480Z,95402
2018-11-11T10:57:07.638Z,95402.6
2018-11-11T10:58:09.235Z,95403.6
2018-11-11T10:59:11.139Z,95408.7
2018-11-11T11:00:13.529Z,95399.8
2018-11-11T11:01:15.583Z,95401
2018-11-11T11:02:17.726Z,95395.9
2018-11-11T11:03:19.609Z,95399.8
2018-11-11T11:04:21.775Z,95401.3
2018-11-11T11:05:23.974Z,95406.6
2018-11-11T11:06:26.394Z,95407.7
2018-11-11T11:07:28.277Z,95407.5
2018-11-11T11:08:30.709Z,95407.4
2018-11-11T11:09:33.143Z,95408.1
2018-11-11T11:10:35.286Z,95402.6
2018-11-11T11:11:37.146Z,95397.2
2018-11-11T11:12:39.310Z,95394.8
2018-11-11T11:13:41.747Z,95391.1
2018-11-11T11:14:43.860Z,95388.6
2018-11-11T11:15:46.295Z,95391.7
2018-11-11T11:16:48.159Z,95391.5
2018-11-11T11:17:50.589Z,95395.2
2018-11-11T11:18:53.032Z,95393.9
2018-11-11T11:19:55.461Z,95397.1
2018-11-11T11:20:57.644Z,95394.9
2018-11-11T11:21:59.249Z,95392
2018-11-11T11:23:02.018Z,95391.8
2018-11-11T11:24:04.418Z,95398
2018-11-11T11:25:06.581Z,95394.5
2018-11-11T11:26:08.738Z,95397.5
2018-11-11T11:27:11.172Z,95399.7
2018-11-11T11:28:13.407Z,95399.2
2018-11-11T11:29:15.836Z,95400
2018-11-11T11:30:18.008Z,95404.9
2018-11-11T11:31:20.200Z,95402.1
2018-11-11T11:32:22.379Z,95401.6
2018-11-11T11:33:24.269Z,95401.5
2018-11-11T11:34:26.749Z,95394.2
2018-11-11T11:35:28.515Z,95402
2018-11-11T11:36:30.972Z,95397.7
2018-11-11T11:37:33.408Z,95405.7
2018-11-11T11:38:35.847Z,95398.4
2018-11-11T11:39:38.246Z,95397
2018-11-11T11:40:40.128Z,95389.4
2018-11-11T11:41:42.612Z,95388
2018-11-11T11:42:44.473Z,95380.5
2018-11-11T11:43:46.649Z,95379.7
2018-11-11T11:44:48.521Z,95377.6
2018-11-11T11:45:50.705Z,95374.8
2018-11-11T11:46:52.867Z,95372.6
2018-11-11T11:47:54.760Z,95366
2018-11-11T11:48:57.195Z,95365.5
2018-11-11T11:49:59.906Z,95363.2
2018-11-11T11:51:01.893Z,95361.6
2018-11-11T11:52:04.349Z,95363
2018-11-11T11:53:06.480Z,95360.1
2018-11-11T11:54:08.369Z,95364.1
2018-11-11T11:55:10.806Z,95366
2018-11-11T11:56:13.251Z,95360.9
2018-11-11T11:57:15.416Z,95363.9
2018-11-11T11:58:18.131Z,95362.9
2018-11-11T11:59:20.564Z,95362.3
2018-11-11T12:00:22.718Z,95353.9
2018-11-11T12:01:24.887Z,95353.9
2018-11-11T12:02:27.070Z,95352.5
2018-11-11T12:03:28.958Z,95357.5
2018-11-11T12:04:30.548Z,95357.8
2018-11-11T12:05:32.403Z,95370.2
2018-11-11T12:06:34.282Z,95378.2
2018-11-11T12:07:36.455Z,95377.1
2018-11-11T12:08:39.675Z,95385.2
2018-11-11T12:09:41.577Z,95385.4
2018-11-11T12:10:43.761Z,95377.6
2018-11-11T12:11:45.643Z,95372.2
2018-11-11T12:12:47.795Z,95376.4
2018-11-11T12:13:49.692Z,95373.8
2018-11-11T12:14:51.843Z,95372.7
2018-11-11T12:15:54.276Z,95376.8
2018-11-11T12:16:56.593Z,95372.9
2018-11-11T12:17:59.071Z,95374.5
2018-11-11T12:19:01.222Z,95371.1
2018-11-11T12:20:03.083Z,95371.5
2018-11-11T12:21:04.973Z,95369.7
2018-11-11T12:22:07.415Z,95365.8
2018-11-11T12:23:09.728Z,95367.2
2018-11-11T12:24:11.741Z,95360.7
2018-11-11T12:25:13.901Z,95359.1
2018-11-11T12:26:16.058Z,95360.8
2018-11-11T12:27:18.499Z,95362.2
2018-11-11T12:28:20.672Z,95360.6
2018-11-11T12:29:22.827Z,95359.6
2018-11-11T12:30:25.273Z,95358.8
2018-11-11T12:31:27.611Z,95356.7
2018-11-11T12:32:29.759Z,95360.2
2018-11-11T12:33:31.381Z,95356.4
2018-11-11T12:34:33.545Z,95359
2018-11-11T12:35:35.708Z,95359.5
2018-11-11T12:36:37.869Z,95358.5